createdAt,value
2023-05-21T00:00:55.573Z,18.94
2023-05-21T00:01:57.260Z,18.91
2023-05-21T00:02:59.411Z,18.93
2023-05-21T00:04:01.374Z,18.90
2023-05-21T00:05:03.396Z,18.88
2023-05-21T00:06:05.069Z,18.88
2023-05-21T00:07:10.149Z,18.86
2023-05-21T00:08:11.794Z,18.84
2023-05-21T00:09:13.760Z,18.84
2023-05-21T00:10:15.621Z,18.84
2023-05-21T00:11:17.485Z,18.83
2023-05-21T00:12:19.166Z,18.80
2023-05-21T00:13:20.803Z,18.81
2023-05-21T00:14:22.469Z,18.80
2023-05-21T00:15:24.109Z,18.81
2023-05-21T00:16:25.839Z,18.81
2023-05-21T00:17:28.663Z,18.80
2023-05-21T00:18:32.492Z,18.76
2023-05-21T00:19:34.230Z,18.74
2023-05-21T00:20:37.242Z,18.73
2023-05-21T00:21:39.652Z,18.73
2023-05-21T00:22:42.449Z,18.70
2023-05-21T00:23:45.539Z,18.67
2023-05-21T00:24:47.145Z,18.61
2023-05-21T00:25:50.480Z,18.59
2023-05-21T00:26:52.168Z,18.59
2023-05-21T00:27:57.481Z,18.54
2023-05-21T00:28:59.221Z,18.53
2023-05-21T00:30:00.887Z,18.52
2023-05-21T00:31:02.526Z,18.49
2023-05-21T00:32:04.603Z,18.50
2023-05-21T00:33:06.287Z,18.49
2023-05-21T00:34:07.974Z,18.45
2023-05-21T00:35:09.750Z,18.45
2023-05-21T00:36:14.578Z,18.42
2023-05-21T00:37:16.489Z,18.43
2023-05-21T00:38:18.782Z,18.39
2023-05-21T00:39:20.506Z,18.37
2023-05-21T00:40:22.280Z,18.37
2023-05-21T00:41:25.681Z,18.33
2023-05-21T00:42:27.776Z,18.33
2023-05-21T00:43:29.377Z,18.29
2023-05-21T00:44:34.468Z,18.28
2023-05-21T00:45:37.496Z,18.25
2023-05-21T00:46:39.790Z,18.28
2023-05-21T00:47:41.861Z,18.25
2023-05-21T00:48:44.321Z,18.29
2023-05-21T00:49:47.131Z,18.26
2023-05-21T00:50:49.598Z,18.25
2023-05-21T00:51:52.000Z,18.23
2023-05-21T00:52:54.495Z,18.23
2023-05-21T00:53:56.342Z,18.26
2023-05-21T00:54:57.969Z,18.23
2023-05-21T00:55:59.616Z,18.22
2023-05-21T00:57:01.251Z,18.21
2023-05-21T00:58:04.559Z,18.19
2023-05-21T00:59:06.269Z,18.16
2023-05-21T01:00:09.194Z,18.15
2023-05-21T01:01:14.135Z,18.12
2023-05-21T01:02:18.295Z,18.13
2023-05-21T01:03:20.632Z,18.13
2023-05-21T01:04:25.367Z,18.10
2023-05-21T01:05:30.224Z,18.09
2023-05-21T01:06:34.890Z,18.06
2023-05-21T01:07:39.058Z,18.06
2023-05-21T01:08:41.050Z,17.98
2023-05-21T01:09:43.071Z,17.96
2023-05-21T01:10:44.884Z,17.94
2023-05-21T01:11:47.980Z,17.84
2023-05-21T01:12:49.791Z,17.84
2023-05-21T01:13:51.469Z,17.84
2023-05-21T01:14:53.101Z,17.82
2023-05-21T01:15:54.888Z,17.85
2023-05-21T01:16:56.560Z,17.78
2023-05-21T01:17:58.322Z,17.79
2023-05-21T01:19:00.092Z,17.77
2023-05-21T01:20:01.981Z,17.75
2023-05-21T01:21:04.173Z,17.75
2023-05-21T01:22:07.431Z,17.75
2023-05-21T01:23:09.132Z,17.77
2023-05-21T01:24:10.765Z,17.77
2023-05-21T01:25:12.470Z,17.75
2023-05-21T01:26:14.119Z,17.75
2023-05-21T01:27:16.065Z,17.74
2023-05-21T01:28:17.755Z,17.71
2023-05-21T01:29:19.446Z,17.72
2023-05-21T01:30:21.465Z,17.71
2023-05-21T01:31:27.440Z,17.72
2023-05-21T01:32:53.079Z,17.68
2023-05-21T01:33:54.789Z,17.67
2023-05-21T01:35:09.893Z,17.65
2023-05-21T01:36:26.362Z,17.62
2023-05-21T01:37:48.871Z,17.58
2023-05-21T01:39:27.472Z,17.51
2023-05-21T01:40:33.482Z,17.41
2023-05-21T01:41:37.238Z,17.40
2023-05-21T01:42:39.350Z,17.35
2023-05-21T01:43:42.604Z,17.27
2023-05-21T01:44:45.164Z,17.27
2023-05-21T01:45:47.653Z,17.21
2023-05-21T01:46:49.837Z,17.20
2023-05-21T01:47:52.286Z,17.11
2023-05-21T01:48:53.958Z,17.07
2023-05-21T01:49:55.689Z,17.06
2023-05-21T01:50:58.517Z,17.09
2023-05-21T01:52:00.137Z,17.03
2023-05-21T01:53:03.761Z,17.02
2023-05-21T01:54:05.449Z,17.02
2023-05-21T01:55:07.250Z,17.06
2023-05-21T01:56:08.925Z,17.03
2023-05-21T01:57:10.616Z,16.99
2023-05-21T01:58:12.249Z,17.00
2023-05-21T01:59:13.857Z,16.96
2023-05-21T02:00:15.621Z,16.91
2023-05-21T02:01:17.302Z,16.91
2023-05-21T02:02:19.358Z,16.87
2023-05-21T02:03:21.874Z,16.84
2023-05-21T02:04:23.692Z,16.79
2023-05-21T02:05:25.536Z,16.82
2023-05-21T02:06:27.243Z,16.79
2023-05-21T02:07:29.143Z,16.77
2023-05-21T02:08:31.405Z,16.73
2023-05-21T02:09:33.156Z,16.73
2023-05-21T02:10:35.874Z,16.73
2023-05-21T02:11:37.564Z,16.72
2023-05-21T02:12:39.327Z,16.70
2023-05-21T02:13:42.881Z,16.69
2023-05-21T02:14:44.569Z,16.73
2023-05-21T02:15:47.310Z,16.75
2023-05-21T02:16:49.008Z,16.79
2023-05-21T02:17:51.526Z,16.76
2023-05-21T02:18:57.072Z,16.80
2023-05-21T02:20:07.273Z,16.83
2023-05-21T02:21:10.804Z,16.86
2023-05-21T02:22:12.455Z,16.89
2023-05-21T02:23:14.130Z,16.87
2023-05-21T02:24:15.797Z,16.90
2023-05-21T02:25:18.469Z,16.93
2023-05-21T02:26:20.115Z,16.96
2023-05-21T02:27:21.738Z,16.91
2023-05-21T02:28:24.033Z,16.90
2023-05-21T02:29:25.675Z,16.91
2023-05-21T02:30:27.294Z,16.90
2023-05-21T02:31:29.008Z,16.91
2023-05-21T02:32:32.285Z,16.87
2023-05-21T02:33:34.040Z,16.90
2023-05-21T02:34:37.399Z,16.93
2023-05-21T02:35:39.064Z,16.93
2023-05-21T02:36:41.662Z,16.93
2023-05-21T02:37:44.379Z,16.91
2023-05-21T02:38:46.738Z,16.93
2023-05-21T02:39:48.366Z,16.89
2023-05-21T02:40:53.182Z,16.89
2023-05-21T02:41:54.881Z,16.82
2023-05-21T02:42:56.536Z,16.86
2023-05-21T02:43:58.173Z,16.84
2023-05-21T02:44:59.878Z,16.82
2023-05-21T02:46:01.562Z,16.80
2023-05-21T02:47:03.240Z,16.80
2023-05-21T02:48:05.089Z,16.83
2023-05-21T02:49:06.885Z,16.80
2023-05-21T02:50:08.875Z,16.79
2023-05-21T02:51:10.525Z,16.75
2023-05-21T02:52:12.343Z,16.79
2023-05-21T02:53:14.032Z,16.76
2023-05-21T02:54:15.727Z,16.79
2023-05-21T02:55:17.391Z,16.77
2023-05-21T02:56:20.023Z,16.76
2023-05-21T02:57:21.671Z,16.72
2023-05-21T02:58:25.311Z,16.75
2023-05-21T02:59:26.954Z,16.66
2023-05-21T03:00:28.618Z,16.66
2023-05-21T03:01:30.299Z,16.65
2023-05-21T03:02:32.431Z,16.63
2023-05-21T03:03:34.238Z,16.65
2023-05-21T03:04:39.202Z,16.63
2023-05-21T03:05:41.374Z,16.65
2023-05-21T03:06:43.277Z,16.62
2023-05-21T03:07:44.907Z,16.62
2023-05-21T03:08:46.549Z,16.60
2023-05-21T03:09:48.283Z,16.63
2023-05-21T03:10:50.137Z,16.59
2023-05-21T03:11:51.797Z,16.59
2023-05-21T03:12:54.893Z,16.60
2023-05-21T03:13:56.545Z,16.59
2023-05-21T03:14:58.188Z,16.56
2023-05-21T03:15:59.863Z,16.59
2023-05-21T03:17:03.510Z,16.63
2023-05-21T03:18:05.237Z,16.68
2023-05-21T03:19:06.928Z,16.70
2023-05-21T03:20:09.526Z,16.75
2023-05-21T03:21:13.379Z,16.79
2023-05-21T03:22:15.084Z,16.80
2023-05-21T03:23:16.956Z,16.82
2023-05-21T03:24:18.778Z,16.80
2023-05-21T03:25:21.647Z,16.80
2023-05-21T03:26:24.104Z,16.82
2023-05-21T03:27:26.231Z,16.87
2023-05-21T03:28:27.860Z,16.89
2023-05-21T03:29:29.470Z,16.89
2023-05-21T03:30:31.201Z,16.89
2023-05-21T03:31:33.006Z,16.91
2023-05-21T03:32:37.953Z,16.94
2023-05-21T03:33:39.752Z,16.96
2023-05-21T03:34:41.429Z,17.00
2023-05-21T03:35:43.054Z,17.02
2023-05-21T03:36:44.745Z,17.03
2023-05-21T03:37:46.615Z,17.04
2023-05-21T03:38:48.306Z,17.00
2023-05-21T03:39:49.951Z,17.00
2023-05-21T03:40:51.583Z,17.00
2023-05-21T03:41:53.205Z,17.00
2023-05-21T03:42:54.900Z,17.03
2023-05-21T03:43:56.522Z,17.04
2023-05-21T03:44:58.190Z,17.07
2023-05-21T03:45:59.912Z,17.09
2023-05-21T03:47:01.556Z,17.04
2023-05-21T03:48:03.400Z,17.07
2023-05-21T03:49:05.161Z,17.09
2023-05-21T03:50:07.761Z,17.10
2023-05-21T03:51:09.671Z,17.14
2023-05-21T03:52:11.373Z,17.14
2023-05-21T03:53:13.913Z,17.17
2023-05-21T03:54:15.595Z,17.17
2023-05-21T03:55:17.294Z,17.21
2023-05-21T03:56:18.971Z,17.21
2023-05-21T03:57:20.587Z,17.24
2023-05-21T03:58:22.717Z,17.26
2023-05-21T03:59:24.385Z,17.24
2023-05-21T04:00:26.038Z,17.17
2023-05-21T04:01:28.491Z,17.23
2023-05-21T04:02:30.602Z,17.24
2023-05-21T04:03:36.723Z,17.24
2023-05-21T04:04:39.667Z,17.20
2023-05-21T04:05:44.638Z,17.13
2023-05-21T04:06:46.564Z,17.19
2023-05-21T04:07:48.609Z,17.20
2023-05-21T04:08:50.403Z,17.19
2023-05-21T04:09:52.074Z,17.20
2023-05-21T04:10:53.952Z,17.21
2023-05-21T04:11:56.036Z,17.14
2023-05-21T04:12:57.673Z,17.17
2023-05-21T04:13:59.349Z,17.19
2023-05-21T04:15:02.941Z,17.20
2023-05-21T04:16:04.747Z,17.27
2023-05-21T04:17:06.724Z,17.28
2023-05-21T04:18:08.482Z,17.28
2023-05-21T04:19:10.226Z,17.30
2023-05-21T04:20:13.916Z,17.33
2023-05-21T04:21:16.357Z,17.38
2023-05-21T04:22:18.064Z,17.43
2023-05-21T04:23:19.736Z,17.45
2023-05-21T04:24:22.605Z,17.47
2023-05-21T04:25:25.553Z,17.52
2023-05-21T04:26:28.179Z,17.55
2023-05-21T04:27:29.926Z,17.60
2023-05-21T04:28:31.560Z,17.61
2023-05-21T04:29:33.228Z,17.60
2023-05-21T04:30:37.730Z,17.65
2023-05-21T04:31:39.555Z,17.71
2023-05-21T04:32:41.388Z,17.74
2023-05-21T04:33:46.106Z,17.81
2023-05-21T04:34:47.926Z,17.85
2023-05-21T04:35:50.790Z,17.92
2023-05-21T04:36:52.447Z,17.89
2023-05-21T04:37:55.081Z,17.98
2023-05-21T04:38:56.797Z,18.01
2023-05-21T04:39:58.537Z,18.09
2023-05-21T04:41:03.833Z,18.15
2023-05-21T04:42:05.701Z,18.22
2023-05-21T04:43:08.271Z,18.23
2023-05-21T04:44:10.293Z,18.25
2023-05-21T04:45:11.980Z,18.30
2023-05-21T04:46:14.032Z,18.35
2023-05-21T04:47:15.805Z,18.36
2023-05-21T04:48:17.946Z,18.39
2023-05-21T04:49:21.954Z,18.43
2023-05-21T04:50:23.625Z,18.45
2023-05-21T04:51:26.780Z,18.45
2023-05-21T04:52:28.470Z,18.46
2023-05-21T04:53:31.105Z,18.42
2023-05-21T04:54:32.828Z,18.46
2023-05-21T04:55:39.642Z,18.45
2023-05-21T04:56:41.301Z,18.53
2023-05-21T04:57:42.944Z,18.56
2023-05-21T04:58:45.752Z,18.52
2023-05-21T04:59:47.871Z,18.60
2023-05-21T05:00:50.960Z,18.54
2023-05-21T05:01:52.853Z,18.61
2023-05-21T05:02:54.625Z,18.66
2023-05-21T05:03:56.660Z,18.71
2023-05-21T05:04:59.901Z,18.76
2023-05-21T05:06:04.401Z,18.80
2023-05-21T05:07:06.059Z,18.86
2023-05-21T05:08:07.771Z,18.90
2023-05-21T05:09:09.451Z,18.94
2023-05-21T05:10:11.117Z,18.97
2023-05-21T05:11:13.502Z,19.00
2023-05-21T05:12:15.186Z,19.07
2023-05-21T05:13:16.853Z,19.11
2023-05-21T05:14:18.905Z,19.18
2023-05-21T05:15:20.651Z,19.35
2023-05-21T05:16:27.997Z,19.57
2023-05-21T05:17:29.717Z,19.73
2023-05-21T05:18:31.635Z,19.93
2023-05-21T05:19:35.170Z,20.05
2023-05-21T05:20:36.906Z,20.12
2023-05-21T05:21:38.726Z,20.14
2023-05-21T05:22:40.369Z,20.16
2023-05-21T05:23:42.083Z,20.19
2023-05-21T05:24:43.741Z,20.24
2023-05-21T05:25:45.689Z,20.26
2023-05-21T05:26:47.341Z,20.30
2023-05-21T05:27:49.003Z,20.33
2023-05-21T05:28:50.849Z,20.33
2023-05-21T05:29:52.491Z,20.33
2023-05-21T05:30:54.283Z,20.40
2023-05-21T05:31:55.941Z,20.34
2023-05-21T05:32:57.668Z,20.36
2023-05-21T05:33:59.425Z,20.36
2023-05-21T05:35:02.433Z,20.34
2023-05-21T05:36:04.656Z,20.34
2023-05-21T05:37:06.322Z,20.36
2023-05-21T05:38:09.069Z,20.41
2023-05-21T05:39:10.768Z,20.45
2023-05-21T05:40:12.494Z,20.48
2023-05-21T05:41:14.185Z,20.55
2023-05-21T05:42:15.898Z,20.61
2023-05-21T05:43:17.530Z,20.65
2023-05-21T05:44:19.168Z,20.72
2023-05-21T05:45:20.999Z,20.72
2023-05-21T05:46:22.738Z,20.85
2023-05-21T05:47:24.618Z,20.88
2023-05-21T05:48:26.369Z,20.94
2023-05-21T05:49:28.006Z,21.01
2023-05-21T05:50:29.849Z,20.98
2023-05-21T05:51:31.954Z,20.99
2023-05-21T05:52:33.651Z,21.08
2023-05-21T05:53:35.290Z,21.09
2023-05-21T05:54:36.964Z,21.18
2023-05-21T05:55:39.414Z,21.26
2023-05-21T05:56:41.141Z,21.32
2023-05-21T05:57:44.991Z,21.41
2023-05-21T05:58:46.896Z,21.47
2023-05-21T05:59:48.594Z,21.66
2023-05-21T06:00:50.266Z,21.82
2023-05-21T06:01:51.915Z,21.87
2023-05-21T06:02:53.711Z,21.90
2023-05-21T06:03:57.405Z,22.01
2023-05-21T06:04:59.177Z,22.07
2023-05-21T06:06:00.928Z,22.17
2023-05-21T06:07:02.714Z,22.21
2023-05-21T06:08:04.667Z,22.30
2023-05-21T06:09:06.475Z,22.37
2023-05-21T06:10:08.529Z,22.37
2023-05-21T06:11:11.018Z,22.31
2023-05-21T06:12:16.024Z,22.33
2023-05-21T06:13:17.769Z,22.35
2023-05-21T06:14:19.414Z,22.35
2023-05-21T06:15:21.130Z,22.30
2023-05-21T06:16:22.885Z,22.22
2023-05-21T06:17:24.654Z,22.24
2023-05-21T06:18:26.417Z,22.33
2023-05-21T06:19:28.111Z,22.40
2023-05-21T06:20:30.036Z,22.48
2023-05-21T06:21:31.666Z,22.51
2023-05-21T06:22:33.624Z,22.59
2023-05-21T06:23:37.756Z,22.67
2023-05-21T06:24:39.439Z,22.72
2023-05-21T06:25:41.118Z,22.78
2023-05-21T06:26:42.772Z,22.79
2023-05-21T06:27:44.506Z,22.82
2023-05-21T06:28:46.222Z,22.84
2023-05-21T06:29:47.869Z,22.78
2023-05-21T06:30:49.504Z,22.79
2023-05-21T06:31:51.197Z,22.79
2023-05-21T06:32:53.023Z,22.73
2023-05-21T06:33:54.875Z,22.82
2023-05-21T06:34:56.717Z,22.89
2023-05-21T06:35:58.389Z,22.81
2023-05-21T06:37:00.018Z,22.78
2023-05-21T06:38:01.663Z,22.81
2023-05-21T06:39:03.572Z,22.82
2023-05-21T06:40:05.977Z,22.79
2023-05-21T06:41:07.608Z,22.85
2023-05-21T06:42:09.277Z,22.85
2023-05-21T06:43:10.956Z,22.85
2023-05-21T06:44:12.587Z,22.86
2023-05-21T06:45:14.361Z,22.86
2023-05-21T06:46:16.508Z,22.94
2023-05-21T06:47:18.143Z,22.94
2023-05-21T06:48:19.779Z,23.03
2023-05-21T06:49:21.456Z,23.09
2023-05-21T06:50:24.130Z,23.18
2023-05-21T06:51:25.928Z,23.27
2023-05-21T06:52:27.635Z,23.34
2023-05-21T06:53:29.356Z,23.36
2023-05-21T06:54:31.035Z,23.42
2023-05-21T06:55:32.760Z,23.42
2023-05-21T06:56:34.469Z,23.40
2023-05-21T06:57:38.154Z,23.39
2023-05-21T06:58:39.830Z,23.36
2023-05-21T06:59:41.558Z,23.39
2023-05-21T07:00:43.203Z,23.40
2023-05-21T07:01:45.079Z,23.43
2023-05-21T07:02:46.979Z,23.49
2023-05-21T07:03:49.141Z,23.53
2023-05-21T07:04:51.988Z,23.50
2023-05-21T07:05:53.878Z,23.47
2023-05-21T07:06:55.595Z,23.60
2023-05-21T07:07:57.235Z,23.73
2023-05-21T07:08:58.968Z,23.80
2023-05-21T07:10:00.693Z,23.77
2023-05-21T07:11:02.465Z,23.77
2023-05-21T07:12:05.715Z,23.70
2023-05-21T07:13:07.435Z,23.80
2023-05-21T07:14:09.081Z,23.63
2023-05-21T07:15:11.145Z,23.69
2023-05-21T07:16:12.877Z,23.73
2023-05-21T07:17:14.635Z,23.77
2023-05-21T07:18:16.896Z,23.81
2023-05-21T07:19:18.633Z,23.85
2023-05-21T07:20:20.394Z,23.85
2023-05-21T07:21:22.163Z,23.85
2023-05-21T07:22:25.077Z,23.84
2023-05-21T07:23:28.308Z,23.91
2023-05-21T07:24:29.948Z,23.87
2023-05-21T07:25:31.705Z,23.91
2023-05-21T07:26:33.408Z,23.87
2023-05-21T07:27:35.108Z,23.87
2023-05-21T07:28:36.972Z,23.85
2023-05-21T07:29:38.688Z,23.88
2023-05-21T07:30:40.328Z,23.87
2023-05-21T07:31:42.006Z,23.84
2023-05-21T07:32:43.749Z,23.88
2023-05-21T07:33:45.508Z,23.96
2023-05-21T07:34:47.514Z,23.88
2023-05-21T07:35:49.179Z,23.93
2023-05-21T07:36:50.952Z,23.96
2023-05-21T07:37:52.589Z,24.00
2023-05-21T07:38:54.823Z,24.01
2023-05-21T07:39:57.415Z,24.02
2023-05-21T07:40:59.105Z,24.07
2023-05-21T07:42:00.840Z,24.11
2023-05-21T07:43:02.503Z,24.14
2023-05-21T07:44:04.268Z,24.18
2023-05-21T07:45:06.895Z,24.21
2023-05-21T07:46:08.567Z,24.24
2023-05-21T07:47:10.288Z,24.18
2023-05-21T07:48:11.933Z,24.22
2023-05-21T07:49:16.865Z,24.20
2023-05-21T07:50:18.810Z,24.15
2023-05-21T07:51:20.454Z,24.21
2023-05-21T07:52:22.110Z,24.21
2023-05-21T07:53:23.794Z,24.07
2023-05-21T07:54:25.465Z,24.08
2023-05-21T07:55:27.137Z,24.12
2023-05-21T07:56:29.584Z,24.20
2023-05-21T07:57:31.231Z,24.18
2023-05-21T07:58:35.241Z,24.24
2023-05-21T07:59:36.961Z,24.25
2023-05-21T08:00:45.291Z,24.22
2023-05-21T08:01:47.012Z,24.35
2023-05-21T08:02:48.720Z,24.42
2023-05-21T08:03:50.688Z,24.41
2023-05-21T08:04:52.686Z,24.41
2023-05-21T08:05:54.631Z,24.51
2023-05-21T08:06:56.628Z,24.35
2023-05-21T08:07:58.293Z,24.42
2023-05-21T08:09:01.858Z,24.45
2023-05-21T08:10:04.069Z,24.49
2023-05-21T08:11:06.168Z,24.51
2023-05-21T08:12:08.156Z,24.53
2023-05-21T08:13:11.726Z,24.51
2023-05-21T08:14:13.367Z,24.51
2023-05-21T08:15:15.148Z,24.47
2023-05-21T08:16:17.305Z,24.45
2023-05-21T08:17:19.004Z,24.47
2023-05-21T08:18:20.756Z,24.47
2023-05-21T08:19:22.455Z,24.49
2023-05-21T08:20:24.216Z,24.55
2023-05-21T08:21:26.314Z,24.53
2023-05-21T08:22:27.972Z,24.51
2023-05-21T08:23:29.757Z,24.56
2023-05-21T08:24:31.384Z,24.51
2023-05-21T08:25:33.165Z,24.43
2023-05-21T08:26:35.692Z,24.38
2023-05-21T08:27:37.342Z,24.29
2023-05-21T08:28:39.189Z,24.29
2023-05-21T08:29:41.257Z,24.33
2023-05-21T08:30:42.904Z,24.41
2023-05-21T08:31:44.601Z,24.38
2023-05-21T08:32:46.929Z,24.35
2023-05-21T08:33:52.686Z,24.35
2023-05-21T08:34:54.559Z,24.33
2023-05-21T08:35:56.242Z,24.39
2023-05-21T08:36:57.903Z,24.43
2023-05-21T08:37:59.703Z,24.49
2023-05-21T08:39:01.594Z,24.58
2023-05-21T08:40:04.396Z,24.62
2023-05-21T08:41:07.088Z,24.68
2023-05-21T08:42:47.490Z,24.68
2023-05-21T08:43:50.396Z,24.63
2023-05-21T08:44:53.219Z,24.68
2023-05-21T08:45:55.908Z,24.65
2023-05-21T08:46:57.602Z,24.61
2023-05-21T08:47:59.400Z,24.56
2023-05-21T08:49:02.962Z,24.55
2023-05-21T08:50:05.206Z,24.55
2023-05-21T08:51:07.238Z,24.53
2023-05-21T08:52:08.888Z,24.59
2023-05-21T08:53:23.363Z,24.61
2023-05-21T08:54:29.730Z,24.58
2023-05-21T08:55:31.365Z,24.56
2023-05-21T08:56:33.073Z,24.55
2023-05-21T08:57:34.803Z,24.62
2023-05-21T08:58:37.066Z,24.55
2023-05-21T08:59:43.355Z,24.58
2023-05-21T09:00:45.038Z,24.52
2023-05-21T09:01:47.128Z,24.52
2023-05-21T09:02:48.899Z,24.51
2023-05-21T09:03:50.789Z,24.55
2023-05-21T09:04:59.096Z,24.58
2023-05-21T09:06:00.805Z,24.59
2023-05-21T09:07:02.892Z,24.65
2023-05-21T09:08:15.431Z,24.66
2023-05-21T09:09:26.388Z,24.71
2023-05-21T09:10:34.079Z,24.79
2023-05-21T09:11:35.961Z,24.83
2023-05-21T09:12:37.766Z,24.82
2023-05-21T09:13:39.454Z,24.79
2023-05-21T09:14:41.111Z,24.76
2023-05-21T09:15:42.991Z,24.76
2023-05-21T09:16:48.486Z,24.83
2023-05-21T09:17:50.411Z,24.87
2023-05-21T09:18:52.112Z,24.83
2023-05-21T09:20:13.404Z,24.87
2023-05-21T09:21:31.459Z,24.93
2023-05-21T09:22:33.196Z,24.92
2023-05-21T09:23:34.877Z,24.86
2023-05-21T09:24:36.661Z,24.80
2023-05-21T09:25:39.129Z,24.80
2023-05-21T09:26:44.304Z,24.80
2023-05-21T09:27:46.081Z,24.82
2023-05-21T09:28:47.799Z,24.86
2023-05-21T09:29:49.403Z,24.92
2023-05-21T09:30:54.391Z,24.99
2023-05-21T09:31:56.179Z,25.04
2023-05-21T09:32:59.105Z,24.99
2023-05-21T09:34:01.018Z,25.04
2023-05-21T09:35:14.837Z,25.03
2023-05-21T09:36:20.180Z,25.09
2023-05-21T09:37:27.499Z,25.07
2023-05-21T09:38:30.342Z,25.10
2023-05-21T09:39:32.126Z,25.13
2023-05-21T09:40:34.760Z,25.16
2023-05-21T09:41:37.015Z,25.24
2023-05-21T09:42:39.971Z,25.33
2023-05-21T09:43:44.929Z,25.31
2023-05-21T09:44:47.432Z,25.28
2023-05-21T09:45:55.822Z,25.17
2023-05-21T09:47:01.045Z,25.12
2023-05-21T09:48:02.706Z,25.10
2023-05-21T09:49:04.434Z,25.03
2023-05-21T09:50:06.886Z,25.04
2023-05-21T09:51:12.554Z,24.97
2023-05-21T09:52:14.159Z,25.03
2023-05-21T09:53:15.781Z,25.13
2023-05-21T09:54:17.408Z,25.14
2023-05-21T09:55:22.353Z,25.17
2023-05-21T09:56:29.503Z,25.20
2023-05-21T09:57:31.219Z,25.19
2023-05-21T09:58:33.048Z,25.19
2023-05-21T09:59:38.695Z,25.19
2023-05-21T10:00:40.778Z,25.20
2023-05-21T10:01:44.215Z,25.17
2023-05-21T10:02:47.416Z,25.19
2023-05-21T10:03:59.148Z,25.22
2023-05-21T10:05:00.958Z,25.28
2023-05-21T10:06:02.616Z,25.41
2023-05-21T10:07:04.356Z,25.44
2023-05-21T10:08:06.089Z,25.50
2023-05-21T10:09:10.666Z,25.50
2023-05-21T10:10:14.197Z,25.53
2023-05-21T10:11:16.042Z,25.53
2023-05-21T10:12:18.082Z,25.51
2023-05-21T10:13:21.234Z,25.50
2023-05-21T10:14:23.782Z,25.57
2023-05-21T10:15:25.982Z,25.61
2023-05-21T10:16:28.262Z,25.60
2023-05-21T10:17:30.658Z,25.63
2023-05-21T10:18:32.632Z,25.65
2023-05-21T10:19:36.430Z,25.71
2023-05-21T10:20:38.247Z,25.68
2023-05-21T10:21:40.195Z,25.67
2023-05-21T10:22:41.844Z,25.67
2023-05-21T10:23:43.545Z,25.70
2023-05-21T10:24:45.524Z,25.68
2023-05-21T10:25:47.323Z,25.64
2023-05-21T10:26:48.954Z,25.64
2023-05-21T10:27:50.624Z,25.67
2023-05-21T10:28:53.079Z,25.73
2023-05-21T10:29:54.748Z,25.77
2023-05-21T10:30:56.451Z,25.75
2023-05-21T10:31:58.125Z,25.75
2023-05-21T10:33:00.118Z,25.67
2023-05-21T10:34:01.981Z,25.65
2023-05-21T10:35:03.932Z,25.68
2023-05-21T10:36:05.927Z,25.65
2023-05-21T10:37:08.622Z,25.64
2023-05-21T10:38:10.535Z,25.60
2023-05-21T10:39:12.967Z,25.51
2023-05-21T10:40:14.657Z,25.53
2023-05-21T10:41:16.342Z,25.54
2023-05-21T10:42:24.077Z,25.61
2023-05-21T10:43:57.925Z,25.61
2023-05-21T10:45:32.601Z,25.70
2023-05-21T10:46:59.111Z,25.70
2023-05-21T10:48:21.818Z,25.77
2023-05-21T10:49:55.754Z,25.85
2023-05-21T10:51:01.776Z,25.89
2023-05-21T10:52:06.416Z,25.85
2023-05-21T10:53:22.080Z,25.85
2023-05-21T10:54:33.839Z,25.85
2023-05-21T10:55:38.034Z,25.85
2023-05-21T10:56:46.647Z,25.91
2023-05-21T10:58:00.485Z,25.94
2023-05-21T10:59:12.570Z,25.95
2023-05-21T11:00:15.446Z,25.95
2023-05-21T11:01:19.499Z,25.94
2023-05-21T11:02:21.373Z,25.82
2023-05-21T11:03:23.242Z,25.81
2023-05-21T11:04:28.069Z,25.85
2023-05-21T11:05:51.137Z,25.88
2023-05-21T11:06:52.873Z,25.85
2023-05-21T11:07:57.224Z,25.85
2023-05-21T11:09:14.649Z,25.81
2023-05-21T11:10:35.119Z,25.87
2023-05-21T11:11:48.726Z,25.88
2023-05-21T11:13:12.843Z,25.87
2023-05-21T11:14:35.994Z,25.80
2023-05-21T11:15:59.818Z,25.85
2023-05-21T11:17:14.097Z,25.87
2023-05-21T11:18:16.044Z,25.84
2023-05-21T11:19:17.858Z,25.87
2023-05-21T11:20:21.015Z,25.96
2023-05-21T11:21:22.982Z,26.04
2023-05-21T11:22:25.917Z,26.09
2023-05-21T11:23:53.555Z,26.08
2023-05-21T11:24:56.484Z,26.18
2023-05-21T11:26:01.985Z,26.25
2023-05-21T11:27:05.068Z,26.29
2023-05-21T11:28:09.484Z,26.33
2023-05-21T11:29:11.290Z,26.36
2023-05-21T11:30:17.069Z,26.32
2023-05-21T11:31:27.124Z,26.32
2023-05-21T11:32:29.928Z,26.38
2023-05-21T11:33:31.675Z,26.35
2023-05-21T11:34:42.412Z,26.36
2023-05-21T11:35:50.270Z,26.38
2023-05-21T11:36:52.991Z,26.38
2023-05-21T11:37:54.733Z,26.36
2023-05-21T11:39:21.844Z,26.40
2023-05-21T11:40:26.302Z,26.33
2023-05-21T11:41:28.029Z,26.32
2023-05-21T11:42:31.723Z,26.33
2023-05-21T11:43:33.346Z,26.25
2023-05-21T11:44:42.130Z,26.24
2023-05-21T11:45:47.310Z,26.25
2023-05-21T11:46:49.117Z,26.25
2023-05-21T11:47:51.600Z,26.32
2023-05-21T11:48:53.297Z,26.35
2023-05-21T11:49:56.919Z,26.40
2023-05-21T11:50:58.602Z,26.48
2023-05-21T11:52:00.731Z,26.49
2023-05-21T11:53:02.510Z,26.57
2023-05-21T11:54:04.236Z,26.56
2023-05-21T11:55:07.406Z,26.56
2023-05-21T11:56:10.172Z,26.52
2023-05-21T11:57:12.548Z,26.55
2023-05-21T11:58:15.074Z,26.55
2023-05-21T11:59:18.636Z,26.59
2023-05-21T12:00:21.787Z,26.66
2023-05-21T12:01:24.379Z,26.67
2023-05-21T12:02:32.569Z,26.72
2023-05-21T12:03:37.297Z,26.70
2023-05-21T12:04:39.037Z,26.73
2023-05-21T12:05:47.150Z,26.76
2023-05-21T12:06:50.845Z,26.83
2023-05-21T12:07:54.600Z,26.80
2023-05-21T12:08:58.478Z,26.79
2023-05-21T12:10:00.342Z,26.86
2023-05-21T12:11:02.800Z,26.82
2023-05-21T12:12:05.995Z,26.82
2023-05-21T12:13:07.641Z,26.79
2023-05-21T12:14:10.578Z,26.86
2023-05-21T12:15:13.592Z,26.87
2023-05-21T12:16:15.434Z,26.94
2023-05-21T12:17:31.715Z,26.94
2023-05-21T12:18:33.420Z,27.01
2023-05-21T12:19:35.201Z,27.01
2023-05-21T12:20:37.313Z,27.04
2023-05-21T12:21:39.132Z,27.04
2023-05-21T12:22:42.558Z,27.08
2023-05-21T12:23:44.222Z,27.03
2023-05-21T12:24:46.208Z,27.06
2023-05-21T12:25:47.845Z,27.03
2023-05-21T12:26:50.098Z,26.90
2023-05-21T12:27:57.970Z,26.96
2023-05-21T12:28:59.886Z,26.97
2023-05-21T12:30:01.570Z,26.97
2023-05-21T12:31:03.183Z,26.94
2023-05-21T12:32:09.263Z,26.89
2023-05-21T12:33:12.237Z,26.86
2023-05-21T12:34:15.564Z,26.83
2023-05-21T12:35:24.061Z,26.80
2023-05-21T12:36:27.759Z,26.80
2023-05-21T12:37:33.990Z,26.77
2023-05-21T12:38:36.637Z,26.80
2023-05-21T12:39:48.338Z,26.84
2023-05-21T12:40:49.969Z,26.87
2023-05-21T12:41:54.449Z,26.93
2023-05-21T12:42:56.114Z,26.91
2023-05-21T12:43:57.750Z,26.89
2023-05-21T12:44:59.507Z,26.86
2023-05-21T12:46:01.329Z,26.84
2023-05-21T12:47:03.850Z,26.90
2023-05-21T12:48:05.649Z,26.94
2023-05-21T12:49:07.344Z,26.99
2023-05-21T12:50:13.962Z,27.01
2023-05-21T12:51:15.927Z,27.03
2023-05-21T12:52:19.197Z,27.07
2023-05-21T12:53:20.872Z,27.11
2023-05-21T12:54:30.281Z,27.10
2023-05-21T12:55:31.969Z,27.07
2023-05-21T12:56:44.399Z,27.07
2023-05-21T12:57:46.611Z,27.01
2023-05-21T12:58:49.952Z,26.90
2023-05-21T12:59:58.482Z,26.89
2023-05-21T13:01:00.961Z,26.87
2023-05-21T13:02:03.683Z,26.87
2023-05-21T13:03:06.732Z,26.84
2023-05-21T13:04:08.832Z,26.80
2023-05-21T13:05:11.556Z,26.79
2023-05-21T13:06:13.268Z,26.75
2023-05-21T13:07:16.694Z,26.79
2023-05-21T13:08:18.378Z,26.79
2023-05-21T13:09:20.041Z,26.83
2023-05-21T13:10:21.771Z,26.87
2023-05-21T13:11:23.599Z,26.87
2023-05-21T13:12:26.865Z,26.90
2023-05-21T13:13:28.503Z,26.84
2023-05-21T13:14:30.103Z,26.87
2023-05-21T13:15:31.845Z,26.89
2023-05-21T13:16:33.872Z,26.87
2023-05-21T13:17:35.643Z,26.83
2023-05-21T13:18:37.377Z,26.84
2023-05-21T13:19:39.053Z,26.93
2023-05-21T13:20:40.737Z,26.93
2023-05-21T13:21:42.375Z,26.94
2023-05-21T13:22:50.128Z,27.00
2023-05-21T13:23:51.836Z,27.08
2023-05-21T13:24:53.510Z,27.11
2023-05-21T13:25:55.172Z,27.20
2023-05-21T13:26:56.896Z,27.24
2023-05-21T13:28:05.209Z,27.15
2023-05-21T13:29:06.846Z,27.17
2023-05-21T13:30:09.546Z,27.14
2023-05-21T13:31:12.433Z,27.11
2023-05-21T13:32:14.104Z,27.07
2023-05-21T13:33:16.153Z,27.00
2023-05-21T13:34:17.926Z,26.93
2023-05-21T13:35:19.941Z,26.94